sensor_id;sensor_type;location;lat;lon;timestamp;temperature;humidity
76040;SHT30;64736;50.462;4.850;2023-06-10T00:00:45;20.77;60.47
76040;SHT30;64736;50.462;4.850;2023-06-10T00:03:10;20.81;60.44
76040;SHT30;64736;50.462;4.850;2023-06-10T00:05:36;20.67;60.69
76040;SHT30;64736;50.462;4.850;2023-06-10T00:08:05;20.67;60.75
76040;SHT30;64736;50.462;4.850;2023-06-10T00:10:34;20.61;60.90
76040;SHT30;64736;50.462;4.850;2023-06-10T00:13:02;20.61;60.84
76040;SHT30;64736;50.462;4.850;2023-06-10T00:15:29;20.63;60.85
76040;SHT30;64736;50.462;4.850;2023-06-10T00:17:55;20.58;60.75
76040;SHT30;64736;50.462;4.850;2023-06-10T00:20:21;20.54;61.12
76040;SHT30;64736;50.462;4.850;2023-06-10T00:22:49;20.49;61.06
76040;SHT30;64736;50.462;4.850;2023-06-10T00:25:15;20.57;60.87
76040;SHT30;64736;50.462;4.850;2023-06-10T00:27:40;20.50;61.06
76040;SHT30;64736;50.462;4.850;2023-06-10T00:30:06;20.39;61.30
76040;SHT30;64736;50.462;4.850;2023-06-10T00:32:33;20.46;61.08
76040;SHT30;64736;50.462;4.850;2023-06-10T00:34:59;20.40;61.36
76040;SHT30;64736;50.462;4.850;2023-06-10T00:37:24;20.37;61.53
76040;SHT30;64736;50.462;4.850;2023-06-10T00:39:50;20.46;61.52
76040;SHT30;64736;50.462;4.850;2023-06-10T00:42:16;20.34;61.72
76040;SHT30;64736;50.462;4.850;2023-06-10T00:44:42;20.30;61.40
76040;SHT30;64736;50.462;4.850;2023-06-10T00:47:08;20.10;61.92
76040;SHT30;64736;50.462;4.850;2023-06-10T00:49:34;20.13;62.07
76040;SHT30;64736;50.462;4.850;2023-06-10T00:52:02;20.19;61.96
76040;SHT30;64736;50.462;4.850;2023-06-10T00:54:29;20.09;62.09
76040;SHT30;64736;50.462;4.850;2023-06-10T00:56:55;20.10;62.13
76040;SHT30;64736;50.462;4.850;2023-06-10T00:59:21;20.01;62.43
76040;SHT30;64736;50.462;4.850;2023-06-10T01:01:47;20.05;62.29
76040;SHT30;64736;50.462;4.850;2023-06-10T01:04:13;19.96;62.45
76040;SHT30;64736;50.462;4.850;2023-06-10T01:11:49;20.02;62.43
76040;SHT30;64736;50.462;4.850;2023-06-10T01:14:18;19.89;62.71
76040;SHT30;64736;50.462;4.850;2023-06-10T01:16:44;19.96;62.60
76040;SHT30;64736;50.462;4.850;2023-06-10T01:19:11;19.88;62.73
76040;SHT30;64736;50.462;4.850;2023-06-10T01:21:38;19.96;62.75
76040;SHT30;64736;50.462;4.850;2023-06-10T01:24:04;19.83;62.90
76040;SHT30;64736;50.462;4.850;2023-06-10T01:26:34;19.89;63.02
76040;SHT30;64736;50.462;4.850;2023-06-10T01:31:47;19.74;63.69
76040;SHT30;64736;50.462;4.850;2023-06-10T01:34:18;19.82;63.25
76040;SHT30;64736;50.462;4.850;2023-06-10T01:36:48;19.77;63.35
76040;SHT30;64736;50.462;4.850;2023-06-10T01:39:16;19.68;63.34
76040;SHT30;64736;50.462;4.850;2023-06-10T01:41:43;19.70;63.51
76040;SHT30;64736;50.462;4.850;2023-06-10T01:44:09;19.51;64.20
76040;SHT30;64736;50.462;4.850;2023-06-10T01:46:35;19.57;64.38
76040;SHT30;64736;50.462;4.850;2023-06-10T01:49:01;19.37;64.81
76040;SHT30;64736;50.462;4.850;2023-06-10T01:51:26;19.40;65.05
76040;SHT30;64736;50.462;4.850;2023-06-10T01:53:52;19.35;64.89
76040;SHT30;64736;50.462;4.850;2023-06-10T01:56:18;19.41;64.68
76040;SHT30;64736;50.462;4.850;2023-06-10T01:58:46;19.44;63.43
76040;SHT30;64736;50.462;4.850;2023-06-10T02:01:11;19.30;64.79
76040;SHT30;64736;50.462;4.850;2023-06-10T02:03:37;19.24;65.17
76040;SHT30;64736;50.462;4.850;2023-06-10T02:06:03;19.41;64.65
76040;SHT30;64736;50.462;4.850;2023-06-10T02:08:29;19.37;64.69
76040;SHT30;64736;50.462;4.850;2023-06-10T02:10:55;19.13;65.38
76040;SHT30;64736;50.462;4.850;2023-06-10T02:13:20;19.23;65.49
76040;SHT30;64736;50.462;4.850;2023-06-10T02:15:46;19.19;64.93
76040;SHT30;64736;50.462;4.850;2023-06-10T02:18:12;19.34;63.70
76040;SHT30;64736;50.462;4.850;2023-06-10T02:20:38;19.26;65.33
76040;SHT30;64736;50.462;4.850;2023-06-10T02:23:04;19.17;64.85
76040;SHT30;64736;50.462;4.850;2023-06-10T02:25:30;19.16;65.65
76040;SHT30;64736;50.462;4.850;2023-06-10T02:27:56;19.38;64.88
76040;SHT30;64736;50.462;4.850;2023-06-10T02:30:22;19.31;65.40
76040;SHT30;64736;50.462;4.850;2023-06-10T02:32:47;19.40;64.81
76040;SHT30;64736;50.462;4.850;2023-06-10T02:35:17;19.19;65.73
76040;SHT30;64736;50.462;4.850;2023-06-10T02:37:43;19.14;65.60
76040;SHT30;64736;50.462;4.850;2023-06-10T02:40:09;19.23;65.18
76040;SHT30;64736;50.462;4.850;2023-06-10T02:42:36;19.22;65.11
76040;SHT30;64736;50.462;4.850;2023-06-10T02:45:03;19.16;65.49
76040;SHT30;64736;50.462;4.850;2023-06-10T02:47:28;19.17;65.15
76040;SHT30;64736;50.462;4.850;2023-06-10T02:49:54;19.14;65.42
76040;SHT30;64736;50.462;4.850;2023-06-10T02:52:20;18.98;66.13
76040;SHT30;64736;50.462;4.850;2023-06-10T02:54:46;19.00;66.33
76040;SHT30;64736;50.462;4.850;2023-06-10T02:57:12;19.09;65.86
76040;SHT30;64736;50.462;4.850;2023-06-10T02:59:39;19.12;65.59
76040;SHT30;64736;50.462;4.850;2023-06-10T03:02:06;18.99;66.30
76040;SHT30;64736;50.462;4.850;2023-06-10T03:04:32;18.93;66.29
76040;SHT30;64736;50.462;4.850;2023-06-10T03:06:58;18.96;66.24
76040;SHT30;64736;50.462;4.850;2023-06-10T03:09:31;18.81;66.61
76040;SHT30;64736;50.462;4.850;2023-06-10T03:11:57;18.75;66.90
76040;SHT30;64736;50.462;4.850;2023-06-10T03:14:24;18.69;67.37
76040;SHT30;64736;50.462;4.850;2023-06-10T03:16:50;18.65;67.26
76040;SHT30;64736;50.462;4.850;2023-06-10T03:19:15;18.72;66.96
76040;SHT30;64736;50.462;4.850;2023-06-10T03:21:44;18.59;67.19
76040;SHT30;64736;50.462;4.850;2023-06-10T03:24:10;18.48;67.18
76040;SHT30;64736;50.462;4.850;2023-06-10T03:26:36;18.48;67.34
76040;SHT30;64736;50.462;4.850;2023-06-10T03:29:02;18.58;67.28
76040;SHT30;64736;50.462;4.850;2023-06-10T03:31:27;18.52;67.23
76040;SHT30;64736;50.462;4.850;2023-06-10T03:33:53;18.49;67.41
76040;SHT30;64736;50.462;4.850;2023-06-10T03:36:19;18.40;67.74
76040;SHT30;64736;50.462;4.850;2023-06-10T03:38:44;18.40;67.75
76040;SHT30;64736;50.462;4.850;2023-06-10T03:41:10;18.37;67.71
76040;SHT30;64736;50.462;4.850;2023-06-10T03:43:37;18.31;67.86
76040;SHT30;64736;50.462;4.850;2023-06-10T03:46:04;18.49;67.47
76040;SHT30;64736;50.462;4.850;2023-06-10T03:48:30;18.38;67.69
76040;SHT30;64736;50.462;4.850;2023-06-10T03:50:56;18.17;68.29
76040;SHT30;64736;50.462;4.850;2023-06-10T03:53:22;18.28;68.33
76040;SHT30;64736;50.462;4.850;2023-06-10T03:55:48;18.28;68.22
76040;SHT30;64736;50.462;4.850;2023-06-10T03:58:14;18.24;68.42
76040;SHT30;64736;50.462;4.850;2023-06-10T04:00:40;18.24;68.20
76040;SHT30;64736;50.462;4.850;2023-06-10T04:03:11;18.36;68.27
76040;SHT30;64736;50.462;4.850;2023-06-10T04:05:40;18.30;68.47
76040;SHT30;64736;50.462;4.850;2023-06-10T04:08:08;18.47;68.21
76040;SHT30;64736;50.462;4.850;2023-06-10T04:10:34;18.44;68.19
76040;SHT30;64736;50.462;4.850;2023-06-10T04:13:00;18.45;68.38
76040;SHT30;64736;50.462;4.850;2023-06-10T04:15:26;18.37;68.64
76040;SHT30;64736;50.462;4.850;2023-06-10T04:17:52;18.43;68.60
76040;SHT30;64736;50.462;4.850;2023-06-10T04:20:18;18.37;68.75
76040;SHT30;64736;50.462;4.850;2023-06-10T04:22:44;18.37;68.92
76040;SHT30;64736;50.462;4.850;2023-06-10T04:25:09;18.14;69.87
76040;SHT30;64736;50.462;4.850;2023-06-10T04:27:35;18.21;69.77
76040;SHT30;64736;50.462;4.850;2023-06-10T04:30:03;18.37;69.48
76040;SHT30;64736;50.462;4.850;2023-06-10T04:32:29;18.38;69.63
76040;SHT30;64736;50.462;4.850;2023-06-10T04:34:56;18.47;69.51
76040;SHT30;64736;50.462;4.850;2023-06-10T04:37:22;18.30;69.93
76040;SHT30;64736;50.462;4.850;2023-06-10T04:39:48;18.37;69.78
76040;SHT30;64736;50.462;4.850;2023-06-10T04:42:13;18.41;69.79
76040;SHT30;64736;50.462;4.850;2023-06-10T04:44:39;18.41;70.03
76040;SHT30;64736;50.462;4.850;2023-06-10T04:47:06;18.37;70.18
76040;SHT30;64736;50.462;4.850;2023-06-10T04:49:33;18.49;69.94
76040;SHT30;64736;50.462;4.850;2023-06-10T04:51:59;18.27;70.40
76040;SHT30;64736;50.462;4.850;2023-06-10T04:54:25;18.52;70.21
76040;SHT30;64736;50.462;4.850;2023-06-10T04:56:51;18.66;69.59
76040;SHT30;64736;50.462;4.850;2023-06-10T04:59:17;18.51;69.89
76040;SHT30;64736;50.462;4.850;2023-06-10T05:01:43;18.71;69.44
76040;SHT30;64736;50.462;4.850;2023-06-10T05:04:08;18.71;69.19
76040;SHT30;64736;50.462;4.850;2023-06-10T05:06:34;18.64;69.31
76040;SHT30;64736;50.462;4.850;2023-06-10T05:09:01;18.75;69.15
76040;SHT30;64736;50.462;4.850;2023-06-10T05:11:27;18.72;69.54
76040;SHT30;64736;50.462;4.850;2023-06-10T05:13:53;18.62;69.87
76040;SHT30;64736;50.462;4.850;2023-06-10T05:16:18;18.61;69.97
76040;SHT30;64736;50.462;4.850;2023-06-10T05:18:44;18.54;70.38
76040;SHT30;64736;50.462;4.850;2023-06-10T05:21:10;18.51;70.26
76040;SHT30;64736;50.462;4.850;2023-06-10T05:23:36;18.72;69.47
76040;SHT30;64736;50.462;4.850;2023-06-10T05:26:02;18.69;70.56
76040;SHT30;64736;50.462;4.850;2023-06-10T05:28:28;18.86;68.51
76040;SHT30;64736;50.462;4.850;2023-06-10T05:30:53;18.96;68.11
76040;SHT30;64736;50.462;4.850;2023-06-10T05:33:19;18.96;68.34
76040;SHT30;64736;50.462;4.850;2023-06-10T05:35:45;19.13;68.21
76040;SHT30;64736;50.462;4.850;2023-06-10T05:38:10;19.14;68.15
76040;SHT30;64736;50.462;4.850;2023-06-10T05:40:36;19.26;67.03
76040;SHT30;64736;50.462;4.850;2023-06-10T05:43:01;19.28;69.10
76040;SHT30;64736;50.462;4.850;2023-06-10T05:45:27;19.41;66.79
76040;SHT30;64736;50.462;4.850;2023-06-10T05:47:53;19.55;65.74
76040;SHT30;64736;50.462;4.850;2023-06-10T05:50:19;19.65;65.19
76040;SHT30;64736;50.462;4.850;2023-06-10T05:52:44;19.58;64.95
76040;SHT30;64736;50.462;4.850;2023-06-10T05:55:10;19.85;64.44
76040;SHT30;64736;50.462;4.850;2023-06-10T05:57:36;19.62;64.20
76040;SHT30;64736;50.462;4.850;2023-06-10T06:00:03;19.74;64.57
76040;SHT30;64736;50.462;4.850;2023-06-10T06:02:29;19.67;64.50
76040;SHT30;64736;50.462;4.850;2023-06-10T06:04:55;19.71;64.84
76040;SHT30;64736;50.462;4.850;2023-06-10T06:07:21;19.82;64.47
76040;SHT30;64736;50.462;4.850;2023-06-10T06:09:47;19.92;64.50
76040;SHT30;64736;50.462;4.850;2023-06-10T06:12:13;20.01;64.37
76040;SHT30;64736;50.462;4.850;2023-06-10T06:14:38;20.09;63.99
76040;SHT30;64736;50.462;4.850;2023-06-10T06:17:05;20.20;63.84
76040;SHT30;64736;50.462;4.850;2023-06-10T06:19:31;20.33;63.69
76040;SHT30;64736;50.462;4.850;2023-06-10T06:21:57;20.41;63.56
76040;SHT30;64736;50.462;4.850;2023-06-10T06:24:23;20.57;63.03
76040;SHT30;64736;50.462;4.850;2023-06-10T06:26:48;20.73;62.63
76040;SHT30;64736;50.462;4.850;2023-06-10T06:29:14;20.77;62.41
76040;SHT30;64736;50.462;4.850;2023-06-10T06:31:40;20.92;62.35
76040;SHT30;64736;50.462;4.850;2023-06-10T06:34:06;20.92;62.03
76040;SHT30;64736;50.462;4.850;2023-06-10T06:36:31;21.22;61.59
76040;SHT30;64736;50.462;4.850;2023-06-10T06:38:57;21.32;60.98
76040;SHT30;64736;50.462;4.850;2023-06-10T06:41:26;21.45;60.79
76040;SHT30;64736;50.462;4.850;2023-06-10T06:43:54;21.56;60.59
76040;SHT30;64736;50.462;4.850;2023-06-10T06:46:20;21.66;60.37
76040;SHT30;64736;50.462;4.850;2023-06-10T06:48:47;21.70;60.55
76040;SHT30;64736;50.462;4.850;2023-06-10T06:51:12;21.86;60.24
76040;SHT30;64736;50.462;4.850;2023-06-10T06:53:39;21.96;59.94
76040;SHT30;64736;50.462;4.850;2023-06-10T06:56:13;22.04;59.44
76040;SHT30;64736;50.462;4.850;2023-06-10T06:58:38;22.21;58.69
76040;SHT30;64736;50.462;4.850;2023-06-10T07:01:05;22.21;59.06
76040;SHT30;64736;50.462;4.850;2023-06-10T07:03:30;22.38;58.77
76040;SHT30;64736;50.462;4.850;2023-06-10T07:05:56;22.47;57.53
76040;SHT30;64736;50.462;4.850;2023-06-10T07:08:22;22.60;57.86
76040;SHT30;64736;50.462;4.850;2023-06-10T07:10:47;22.73;57.70
76040;SHT30;64736;50.462;4.850;2023-06-10T07:13:14;22.76;56.96
76040;SHT30;64736;50.462;4.850;2023-06-10T07:15:40;22.58;59.88
76040;SHT30;64736;50.462;4.850;2023-06-10T07:18:06;22.89;56.59
76040;SHT30;64736;50.462;4.850;2023-06-10T07:20:31;22.97;56.35
76040;SHT30;64736;50.462;4.850;2023-06-10T07:22:57;23.18;55.35
76040;SHT30;64736;50.462;4.850;2023-06-10T07:25:23;23.23;55.00
76040;SHT30;64736;50.462;4.850;2023-06-10T07:27:49;23.04;59.12
76040;SHT30;64736;50.462;4.850;2023-06-10T07:30:15;23.33;55.61
76040;SHT30;64736;50.462;4.850;2023-06-10T07:32:41;23.72;53.86
76040;SHT30;64736;50.462;4.850;2023-06-10T07:35:09;23.41;54.96
76040;SHT30;64736;50.462;4.850;2023-06-10T07:37:35;23.81;53.88
76040;SHT30;64736;50.462;4.850;2023-06-10T07:40:01;24.17;52.22
76040;SHT30;64736;50.462;4.850;2023-06-10T07:42:27;24.17;52.19
76040;SHT30;64736;50.462;4.850;2023-06-10T07:44:53;24.33;51.36
76040;SHT30;64736;50.462;4.850;2023-06-10T07:47:19;24.40;51.17
76040;SHT30;64736;50.462;4.850;2023-06-10T07:49:44;24.51;50.57
76040;SHT30;64736;50.462;4.850;2023-06-10T07:52:10;24.50;50.43
76040;SHT30;64736;50.462;4.850;2023-06-10T07:54:35;24.74;50.32
76040;SHT30;64736;50.462;4.850;2023-06-10T07:57:01;24.47;50.53
76040;SHT30;64736;50.462;4.850;2023-06-10T07:59:27;24.60;50.45
76040;SHT30;64736;50.462;4.850;2023-06-10T08:01:53;24.98;49.92
76040;SHT30;64736;50.462;4.850;2023-06-10T08:04:19;25.12;48.68
76040;SHT30;64736;50.462;4.850;2023-06-10T08:06:44;25.04;49.33
76040;SHT30;64736;50.462;4.850;2023-06-10T08:09:10;25.18;49.27
76040;SHT30;64736;50.462;4.850;2023-06-10T08:11:36;25.49;47.31
76040;SHT30;64736;50.462;4.850;2023-06-10T08:14:02;25.15;48.13
76040;SHT30;64736;50.462;4.850;2023-06-10T08:16:27;25.36;47.24
76040;SHT30;64736;50.462;4.850;2023-06-10T08:18:53;25.83;45.29
76040;SHT30;64736;50.462;4.850;2023-06-10T08:21:19;25.80;45.34
76040;SHT30;64736;50.462;4.850;2023-06-10T08:23:45;25.85;45.42
76040;SHT30;64736;50.462;4.850;2023-06-10T08:26:11;25.88;44.60
76040;SHT30;64736;50.462;4.850;2023-06-10T08:28:37;25.84;44.76
76040;SHT30;64736;50.462;4.850;2023-06-10T08:31:03;25.97;44.35
76040;SHT30;64736;50.462;4.850;2023-06-10T08:33:29;25.94;44.19
76040;SHT30;64736;50.462;4.850;2023-06-10T08:35:54;26.28;44.04
76040;SHT30;64736;50.462;4.850;2023-06-10T08:38:20;26.05;44.09
76040;SHT30;64736;50.462;4.850;2023-06-10T08:40:46;26.15;43.36
76040;SHT30;64736;50.462;4.850;2023-06-10T08:43:37;26.01;43.36
76040;SHT30;64736;50.462;4.850;2023-06-10T08:46:09;26.52;42.86
76040;SHT30;64736;50.462;4.850;2023-06-10T08:48:41;26.43;42.65
76040;SHT30;64736;50.462;4.850;2023-06-10T08:51:10;26.50;42.47
76040;SHT30;64736;50.462;4.850;2023-06-10T08:53:38;26.56;43.27
76040;SHT30;64736;50.462;4.850;2023-06-10T08:56:05;26.73;42.42
76040;SHT30;64736;50.462;4.850;2023-06-10T08:58:32;26.84;42.35
76040;SHT30;64736;50.462;4.850;2023-06-10T09:01:08;27.12;42.12
76040;SHT30;64736;50.462;4.850;2023-06-10T09:03:37;27.11;42.38
76040;SHT30;64736;50.462;4.850;2023-06-10T09:06:05;26.87;41.68
76040;SHT30;64736;50.462;4.850;2023-06-10T09:08:33;26.94;42.54
76040;SHT30;64736;50.462;4.850;2023-06-10T09:11:01;27.27;41.35
76040;SHT30;64736;50.462;4.850;2023-06-10T09:13:26;27.34;40.98
76040;SHT30;64736;50.462;4.850;2023-06-10T09:15:52;27.21;41.25
76040;SHT30;64736;50.462;4.850;2023-06-10T09:18:18;27.18;41.20
76040;SHT30;64736;50.462;4.850;2023-06-10T09:20:44;27.42;40.91
76040;SHT30;64736;50.462;4.850;2023-06-10T09:23:10;27.56;40.24
76040;SHT30;64736;50.462;4.850;2023-06-10T09:25:37;27.51;39.94
76040;SHT30;64736;50.462;4.850;2023-06-10T09:28:04;27.69;39.30
76040;SHT30;64736;50.462;4.850;2023-06-10T09:30:32;27.66;39.81
76040;SHT30;64736;50.462;4.850;2023-06-10T09:33:00;27.56;39.11
76040;SHT30;64736;50.462;4.850;2023-06-10T09:35:27;27.48;39.29
76040;SHT30;64736;50.462;4.850;2023-06-10T09:37:55;27.63;39.00
76040;SHT30;64736;50.462;4.850;2023-06-10T09:40:21;28.03;39.30
76040;SHT30;64736;50.462;4.850;2023-06-10T09:42:53;28.14;38.70
76040;SHT30;64736;50.462;4.850;2023-06-10T09:45:21;28.24;37.96
76040;SHT30;64736;50.462;4.850;2023-06-10T09:47:47;28.48;37.54
76040;SHT30;64736;50.462;4.850;2023-06-10T09:50:17;28.61;37.47
76040;SHT30;64736;50.462;4.850;2023-06-10T09:52:46;28.96;37.09
76040;SHT30;64736;50.462;4.850;2023-06-10T09:55:12;28.67;36.52
76040;SHT30;64736;50.462;4.850;2023-06-10T09:57:38;28.54;36.04
76040;SHT30;64736;50.462;4.850;2023-06-10T10:00:09;28.96;35.71
76040;SHT30;64736;50.462;4.850;2023-06-10T10:02:45;29.57;35.90
76040;SHT30;64736;50.462;4.850;2023-06-10T10:05:13;29.19;35.90
76040;SHT30;64736;50.462;4.850;2023-06-10T10:07:40;28.82;36.64
76040;SHT30;64736;50.462;4.850;2023-06-10T10:10:06;29.40;36.31
76040;SHT30;64736;50.462;4.850;2023-06-10T10:12:34;29.15;35.92
76040;SHT30;64736;50.462;4.850;2023-06-10T10:15:01;29.25;35.71
76040;SHT30;64736;50.462;4.850;2023-06-10T10:17:29;29.70;35.52
76040;SHT30;64736;50.462;4.850;2023-06-10T10:20:02;29.09;35.64
76040;SHT30;64736;50.462;4.850;2023-06-10T10:22:39;29.65;35.10
76040;SHT30;64736;50.462;4.850;2023-06-10T10:25:16;31.74;32.02
76040;SHT30;64736;50.462;4.850;2023-06-10T10:27:51;29.84;34.22
76040;SHT30;64736;50.462;4.850;2023-06-10T10:30:20;29.98;34.51
76040;SHT30;64736;50.462;4.850;2023-06-10T10:33:07;30.30;33.04
76040;SHT30;64736;50.462;4.850;2023-06-10T10:35:36;31.61;31.17
76040;SHT30;64736;50.462;4.850;2023-06-10T10:38:04;30.59;32.03
76040;SHT30;64736;50.462;4.850;2023-06-10T10:40:30;31.26;31.52
76040;SHT30;64736;50.462;4.850;2023-06-10T10:42:58;30.81;31.01
76040;SHT30;64736;50.462;4.850;2023-06-10T10:45:28;31.17;31.03
76040;SHT30;64736;50.462;4.850;2023-06-10T10:47:55;31.02;29.57
76040;SHT30;64736;50.462;4.850;2023-06-10T10:50:22;31.55;28.86
76040;SHT30;64736;50.462;4.850;2023-06-10T10:52:56;31.01;29.17
76040;SHT30;64736;50.462;4.850;2023-06-10T10:55:23;30.99;29.81
76040;SHT30;64736;50.462;4.850;2023-06-10T10:58:06;32.31;28.35
76040;SHT30;64736;50.462;4.850;2023-06-10T11:00:36;32.32;27.93
76040;SHT30;64736;50.462;4.850;2023-06-10T11:05:35;30.00;30.45
76040;SHT30;64736;50.462;4.850;2023-06-10T11:08:03;31.04;28.49
76040;SHT30;64736;50.462;4.850;2023-06-10T11:10:31;31.61;28.73
76040;SHT30;64736;50.462;4.850;2023-06-10T11:12:57;32.78;26.90
76040;SHT30;64736;50.462;4.850;2023-06-10T11:15:25;32.82;27.25
76040;SHT30;64736;50.462;4.850;2023-06-10T11:18:13;31.06;30.51
76040;SHT30;64736;50.462;4.850;2023-06-10T11:31:27;33.27;26.95
76040;SHT30;64736;50.462;4.850;2023-06-10T11:33:53;31.80;29.20
76040;SHT30;64736;50.462;4.850;2023-06-10T11:36:19;31.92;29.13
76040;SHT30;64736;50.462;4.850;2023-06-10T11:38:45;31.92;29.15
76040;SHT30;64736;50.462;4.850;2023-06-10T11:41:11;31.82;29.44
76040;SHT30;64736;50.462;4.850;2023-06-10T11:43:43;32.71;28.52
76040;SHT30;64736;50.462;4.850;2023-06-10T11:46:09;34.13;26.82
76040;SHT30;64736;50.462;4.850;2023-06-10T11:48:35;32.30;28.92
76040;SHT30;64736;50.462;4.850;2023-06-10T11:51:06;30.57;30.55
76040;SHT30;64736;50.462;4.850;2023-06-10T11:53:32;30.28;30.91
76040;SHT30;64736;50.462;4.850;2023-06-10T11:55:58;30.42;30.59
76040;SHT30;64736;50.462;4.850;2023-06-10T11:58:24;30.80;30.39
76040;SHT30;64736;50.462;4.850;2023-06-10T12:00:52;30.61;30.38
76040;SHT30;64736;50.462;4.850;2023-06-10T12:03:38;31.39;29.48
76040;SHT30;64736;50.462;4.850;2023-06-10T12:06:05;30.26;30.17
76040;SHT30;64736;50.462;4.850;2023-06-10T12:08:32;30.33;29.82
76040;SHT30;64736;50.462;4.850;2023-06-10T12:10:59;30.29;29.99
76040;SHT30;64736;50.462;4.850;2023-06-10T12:13:28;31.49;29.37
76040;SHT30;64736;50.462;4.850;2023-06-10T12:15:54;31.96;28.82
76040;SHT30;64736;50.462;4.850;2023-06-10T12:18:25;31.50;28.26
76040;SHT30;64736;50.462;4.850;2023-06-10T12:20:51;31.25;29.56
76040;SHT30;64736;50.462;4.850;2023-06-10T12:23:17;31.61;31.23
76040;SHT30;64736;50.462;4.850;2023-06-10T12:25:52;31.80;32.86
76040;SHT30;64736;50.462;4.850;2023-06-10T12:28:27;31.47;32.48
76040;SHT30;64736;50.462;4.850;2023-06-10T12:31:08;31.39;32.94
76040;SHT30;64736;50.462;4.850;2023-06-10T12:33:33;31.25;34.07
76040;SHT30;64736;50.462;4.850;2023-06-10T12:35:59;31.38;33.80
76040;SHT30;64736;50.462;4.850;2023-06-10T12:38:26;31.66;34.28
76040;SHT30;64736;50.462;4.850;2023-06-10T12:41:01;31.36;34.79
76040;SHT30;64736;50.462;4.850;2023-06-10T12:43:31;30.18;36.38
76040;SHT30;64736;50.462;4.850;2023-06-10T12:46:09;30.74;35.82
76040;SHT30;64736;50.462;4.850;2023-06-10T12:48:35;31.19;34.34
76040;SHT30;64736;50.462;4.850;2023-06-10T12:51:01;30.80;34.25
76040;SHT30;64736;50.462;4.850;2023-06-10T12:53:27;31.31;33.09
76040;SHT30;64736;50.462;4.850;2023-06-10T12:55:52;31.22;32.89
76040;SHT30;64736;50.462;4.850;2023-06-10T12:58:22;32.80;30.50
76040;SHT30;64736;50.462;4.850;2023-06-10T13:00:48;31.97;31.52
76040;SHT30;64736;50.462;4.850;2023-06-10T13:03:15;31.82;32.13
76040;SHT30;64736;50.462;4.850;2023-06-10T13:05:40;32.49;31.62
76040;SHT30;64736;50.462;4.850;2023-06-10T13:08:07;31.47;33.09
76040;SHT30;64736;50.462;4.850;2023-06-10T13:10:36;30.53;33.68
76040;SHT30;64736;50.462;4.850;2023-06-10T13:13:02;29.94;33.91
76040;SHT30;64736;50.462;4.850;2023-06-10T13:15:31;30.01;33.99
76040;SHT30;64736;50.462;4.850;2023-06-10T13:17:57;30.05;33.39
76040;SHT30;64736;50.462;4.850;2023-06-10T13:20:23;31.28;31.23
76040;SHT30;64736;50.462;4.850;2023-06-10T13:22:50;31.26;30.94
76040;SHT30;64736;50.462;4.850;2023-06-10T13:25:15;32.11;30.08
76040;SHT30;64736;50.462;4.850;2023-06-10T13:27:41;31.98;30.15
76040;SHT30;64736;50.462;4.850;2023-06-10T13:30:09;31.41;30.52
76040;SHT30;64736;50.462;4.850;2023-06-10T13:32:36;31.07;30.95
76040;SHT30;64736;50.462;4.850;2023-06-10T13:35:01;34.02;27.73
76040;SHT30;64736;50.462;4.850;2023-06-10T13:37:28;32.24;29.31
76040;SHT30;64736;50.462;4.850;2023-06-10T13:39:54;33.97;26.98
76040;SHT30;64736;50.462;4.850;2023-06-10T13:42:20;33.49;26.94
76040;SHT30;64736;50.462;4.850;2023-06-10T13:44:49;33.55;26.44
76040;SHT30;64736;50.462;4.850;2023-06-10T13:47:15;34.00;26.34
76040;SHT30;64736;50.462;4.850;2023-06-10T13:49:41;32.34;27.10
76040;SHT30;64736;50.462;4.850;2023-06-10T13:52:07;31.83;27.76
76040;SHT30;64736;50.462;4.850;2023-06-10T13:54:34;32.10;27.86
76040;SHT30;64736;50.462;4.850;2023-06-10T13:57:03;31.96;28.55
76040;SHT30;64736;50.462;4.850;2023-06-10T13:59:29;31.66;28.82
76040;SHT30;64736;50.462;4.850;2023-06-10T14:01:55;31.47;28.86
76040;SHT30;64736;50.462;4.850;2023-06-10T14:04:22;32.52;28.08
76040;SHT30;64736;50.462;4.850;2023-06-10T14:06:47;32.14;28.91
76040;SHT30;64736;50.462;4.850;2023-06-10T14:09:13;31.83;29.36
76040;SHT30;64736;50.462;4.850;2023-06-10T14:11:39;32.37;28.54
76040;SHT30;64736;50.462;4.850;2023-06-10T14:14:05;33.06;28.09
76040;SHT30;64736;50.462;4.850;2023-06-10T14:16:31;33.10;27.63
76040;SHT30;64736;50.462;4.850;2023-06-10T14:18:57;32.67;26.93
76040;SHT30;64736;50.462;4.850;2023-06-10T14:21:23;32.13;27.73
76040;SHT30;64736;50.462;4.850;2023-06-10T14:23:49;32.23;27.84
76040;SHT30;64736;50.462;4.850;2023-06-10T14:26:17;31.82;28.50
76040;SHT30;64736;50.462;4.850;2023-06-10T14:28:42;32.72;27.59
76040;SHT30;64736;50.462;4.850;2023-06-10T14:31:08;32.27;28.37
76040;SHT30;64736;50.462;4.850;2023-06-10T14:33:34;32.42;28.30
76040;SHT30;64736;50.462;4.850;2023-06-10T14:35:59;33.00;27.68
76040;SHT30;64736;50.462;4.850;2023-06-10T14:38:25;31.28;29.26
76040;SHT30;64736;50.462;4.850;2023-06-10T14:40:51;32.01;28.54
76040;SHT30;64736;50.462;4.850;2023-06-10T14:43:17;31.80;29.18
76040;SHT30;64736;50.462;4.850;2023-06-10T14:45:43;31.50;29.42
76040;SHT30;64736;50.462;4.850;2023-06-10T14:48:10;30.99;29.96
76040;SHT30;64736;50.462;4.850;2023-06-10T14:50:36;30.73;30.29
76040;SHT30;64736;50.462;4.850;2023-06-10T14:53:02;31.10;31.36
76040;SHT30;64736;50.462;4.850;2023-06-10T14:55:28;30.73;30.86
76040;SHT30;64736;50.462;4.850;2023-06-10T14:57:53;30.50;31.34
76040;SHT30;64736;50.462;4.850;2023-06-10T15:00:19;31.73;30.53
76040;SHT30;64736;50.462;4.850;2023-06-10T15:02:47;32.31;31.95
76040;SHT30;64736;50.462;4.850;2023-06-10T15:05:17;33.91;27.99
76040;SHT30;64736;50.462;4.850;2023-06-10T15:07:45;32.24;28.81
76040;SHT30;64736;50.462;4.850;2023-06-10T15:10:11;33.64;27.28
76040;SHT30;64736;50.462;4.850;2023-06-10T15:12:37;33.80;26.58
76040;SHT30;64736;50.462;4.850;2023-06-10T15:15:04;34.01;26.74
76040;SHT30;64736;50.462;4.850;2023-06-10T15:17:30;34.87;25.90
76040;SHT30;64736;50.462;4.850;2023-06-10T15:19:56;33.84;26.45
76040;SHT30;64736;50.462;4.850;2023-06-10T15:22:21;32.04;29.19
76040;SHT30;64736;50.462;4.850;2023-06-10T15:24:47;31.42;29.32
76040;SHT30;64736;50.462;4.850;2023-06-10T15:27:13;31.67;28.45
76040;SHT30;64736;50.462;4.850;2023-06-10T15:29:38;30.94;29.54
76040;SHT30;64736;50.462;4.850;2023-06-10T15:32:05;30.91;30.45
76040;SHT30;64736;50.462;4.850;2023-06-10T15:34:30;31.21;29.54
76040;SHT30;64736;50.462;4.850;2023-06-10T15:36:56;31.41;29.29
76040;SHT30;64736;50.462;4.850;2023-06-10T15:39:22;31.35;29.09
76040;SHT30;64736;50.462;4.850;2023-06-10T15:41:50;32.47;28.83
76040;SHT30;64736;50.462;4.850;2023-06-10T15:44:15;31.50;30.23
76040;SHT30;64736;50.462;4.850;2023-06-10T15:46:41;31.52;30.95
76040;SHT30;64736;50.462;4.850;2023-06-10T15:49:07;33.43;30.66